createdAt,value
2019-01-02T00:03:22.777Z,55.4
2019-01-02T00:08:19.032Z,55.4
2019-01-02T00:13:15.141Z,55.4
2019-01-02T00:18:11.496Z,55.4
2019-01-02T00:23:07.954Z,55.4
2019-01-02T00:28:03.911Z,55.2
2019-01-02T00:33:00.173Z,55.1
2019-01-02T00:37:56.147Z,55.3
2019-01-02T00:42:52.149Z,55.4
2019-01-02T00:47:48.452Z,55.5
2019-01-02T00:52:44.654Z,55.5
2019-01-02T00:57:40.863Z,55.3
2019-01-02T01:02:36.921Z,55.2
2019-01-02T01:07:33.126Z,55.5
2019-01-02T01:12:29.223Z,55.7
2019-01-02T01:17:25.307Z,56.3
2019-01-02T01:22:21.341Z,56.7
2019-01-02T01:27:17.624Z,56.2
2019-01-02T01:32:13.837Z,56.6
2019-01-02T01:37:10.503Z,56.8
2019-01-02T01:42:06.573Z,55.6
2019-01-02T01:47:02.649Z,55.9
2019-01-02T01:51:58.859Z,55.2
2019-01-02T01:56:55.062Z,55.2
2019-01-02T02:01:51.302Z,55.1
2019-01-02T02:06:47.507Z,54.8
2019-01-02T02:11:43.766Z,55.1
2019-01-02T02:16:39.907Z,55.3
2019-01-02T02:21:36.120Z,55
2019-01-02T02:26:32.562Z,54.8
2019-01-02T02:31:29.909Z,55
2019-01-02T02:36:25.982Z,55.2
2019-01-02T02:41:21.985Z,55
2019-01-02T02:46:18.071Z,54.8
2019-01-02T02:51:14.188Z,54.5
2019-01-02T02:56:10.593Z,54.5
2019-01-02T03:01:07.364Z,54.6
2019-01-02T03:06:03.130Z,54.5
2019-01-02T03:11:00.733Z,54.5
2019-01-02T03:15:56.400Z,54.9
2019-01-02T03:20:52.593Z,54.9
2019-01-02T03:25:48.853Z,54.8
2019-01-02T03:30:45.154Z,54.9
2019-01-02T03:35:41.221Z,55.1
2019-01-02T03:40:37.534Z,55
2019-01-02T03:45:33.604Z,55.2
2019-01-02T03:50:29.838Z,55.4
2019-01-02T03:55:26.372Z,55
2019-01-02T04:00:22.780Z,55
2019-01-02T04:05:18.880Z,55.1
2019-01-02T04:10:15.366Z,54.9
2019-01-02T04:15:11.543Z,55.2
2019-01-02T04:20:07.921Z,55.1
2019-01-02T04:25:04.087Z,54.9
2019-01-02T04:30:00.235Z,55.1
2019-01-02T04:34:56.714Z,55.1
2019-01-02T04:39:52.675Z,55.3
2019-01-02T04:44:48.857Z,55.3
2019-01-02T04:49:45.070Z,55.9
2019-01-02T04:54:41.440Z,55.5
2019-01-02T04:59:37.760Z,55.6
2019-01-02T05:04:34.145Z,55.9
2019-01-02T05:09:30.216Z,55.8
2019-01-02T05:14:26.285Z,55.8
2019-01-02T05:19:22.567Z,55.5
2019-01-02T05:24:20.357Z,54.9
2019-01-02T05:29:17.118Z,55.2
2019-01-02T05:34:13.306Z,54.9
2019-01-02T05:39:09.336Z,55.2
2019-01-02T05:44:05.717Z,55.4
2019-01-02T05:53:58.727Z,55.6
2019-01-02T05:58:55.112Z,55.6
2019-01-02T06:03:51.184Z,55.3
2019-01-02T06:08:47.722Z,55.2
2019-01-02T06:13:43.894Z,55.4
2019-01-02T06:18:40.160Z,55.5
2019-01-02T06:23:36.752Z,55.8
2019-01-02T06:28:33.363Z,55.9
2019-01-02T06:33:29.682Z,56.3
2019-01-02T06:38:26.719Z,56.3
2019-01-02T06:43:23.094Z,57.3
2019-01-02T06:48:19.624Z,57.2
2019-01-02T06:53:15.914Z,57.4
2019-01-02T06:58:12.782Z,56.5
2019-01-02T07:03:10.251Z,55.9
2019-01-02T07:08:06.725Z,55.6
2019-01-02T07:13:03.064Z,55.6
2019-01-02T07:17:59.284Z,55.1
2019-01-02T07:22:55.387Z,54.5
2019-01-02T07:27:51.507Z,54.1
2019-01-02T07:32:47.585Z,54.5
2019-01-02T07:37:43.519Z,54.4
2019-01-02T07:42:39.510Z,54.6
2019-01-02T07:47:35.773Z,54.7
2019-01-02T07:52:32.547Z,55.6
2019-01-02T07:57:29.053Z,55.1
2019-01-02T08:02:25.624Z,55
2019-01-02T08:07:22.607Z,55.1
2019-01-02T08:12:18.940Z,55
2019-01-02T08:17:16.431Z,54.7
2019-01-02T08:22:12.845Z,54.1
2019-01-02T08:27:09.940Z,54.5
2019-01-02T08:32:06.577Z,54.3
2019-01-02T08:37:03.060Z,54.4
2019-01-02T08:41:59.417Z,54.2
2019-01-02T08:46:55.812Z,54.4
2019-01-02T08:51:52.576Z,53.8
2019-01-02T08:56:49.266Z,53.5
2019-01-02T09:01:45.921Z,53
2019-01-02T09:06:42.270Z,52.6
2019-01-02T09:11:38.914Z,51.6
2019-01-02T09:16:35.903Z,51.5
2019-01-02T09:21:30.717Z,50.8
2019-01-02T09:26:27.856Z,50.5
2019-01-02T09:31:25.523Z,49.5
2019-01-02T09:36:21.909Z,49.5
2019-01-02T09:41:17.339Z,49.3
2019-01-02T09:46:13.615Z,49.4
2019-01-02T09:51:09.649Z,49.7
2019-01-02T09:56:05.793Z,49.5
2019-01-02T10:01:02.115Z,49.6
2019-01-02T10:05:58.115Z,50.2
2019-01-02T10:10:53.977Z,49.9
2019-01-02T10:15:50.168Z,49.2
2019-01-02T10:20:46.538Z,48.9
2019-01-02T10:25:42.185Z,49.3
2019-01-02T10:30:38.450Z,49.3
2019-01-02T10:35:34.601Z,49.7
2019-01-02T10:40:30.900Z,49.6
2019-01-02T10:45:27.259Z,49.2
2019-01-02T10:50:23.402Z,49
2019-01-02T10:55:19.719Z,49.1
2019-01-02T11:00:15.814Z,48.7
2019-01-02T11:05:12.260Z,48.3
2019-01-02T11:10:08.282Z,48.4
2019-01-02T11:15:04.500Z,48.5
2019-01-02T11:20:01.112Z,48.6
2019-01-02T11:24:57.457Z,48.5
2019-01-02T11:29:53.368Z,48.4
2019-01-02T11:34:50.523Z,48.7
2019-01-02T11:39:46.630Z,48.9
2019-01-02T11:44:42.976Z,49
2019-01-02T11:49:39.413Z,48.3
2019-01-02T11:54:35.725Z,48.2
2019-01-02T11:59:31.876Z,47.9
2019-01-02T12:04:28.647Z,47.2
2019-01-02T12:09:24.747Z,47.1
2019-01-02T12:14:21.493Z,47.3
2019-01-02T12:19:17.957Z,47.4
2019-01-02T12:24:14.544Z,46.7
2019-01-02T12:29:10.767Z,46.5
2019-01-02T12:34:06.990Z,46.6
2019-01-02T12:39:03.402Z,46.1
2019-01-02T12:43:59.745Z,46.4
2019-01-02T12:48:56.055Z,46.9
2019-01-02T12:53:52.336Z,47.1
2019-01-02T12:58:52.982Z,47.4
2019-01-02T13:03:48.255Z,47.6
2019-01-02T13:08:44.728Z,47.9
2019-01-02T13:13:41.016Z,47.6
2019-01-02T13:18:42.654Z,47.6
2019-01-02T13:23:38.185Z,47.7
2019-01-02T13:28:33.597Z,48.2
2019-01-02T13:33:29.879Z,48.7
2019-01-02T13:38:25.954Z,49.1
2019-01-02T13:43:22.261Z,49.7
2019-01-02T13:48:18.534Z,50
2019-01-02T13:53:14.584Z,50.1
2019-01-02T13:58:11.006Z,50.9
2019-01-02T14:03:07.206Z,51.2
2019-01-02T14:08:03.928Z,51.5
2019-01-02T14:12:59.304Z,52
2019-01-02T14:17:55.408Z,52.5
2019-01-02T14:22:51.564Z,52.9
2019-01-02T14:27:47.706Z,53.2
2019-01-02T14:32:43.818Z,53.5
2019-01-02T14:37:39.968Z,53.8
2019-01-02T14:42:40.309Z,54
2019-01-02T14:47:34.890Z,54.1
2019-01-02T14:52:30.812Z,54.4
2019-01-02T14:57:27.045Z,54.7
2019-01-02T15:02:23.451Z,54.8
2019-01-02T15:07:19.259Z,55.1
2019-01-02T15:12:15.547Z,55.2
2019-01-02T15:17:11.781Z,55.2
2019-01-02T15:22:08.128Z,55.1
2019-01-02T15:27:04.328Z,55.5
2019-01-02T15:32:00.632Z,56
2019-01-02T15:36:56.455Z,56
2019-01-02T15:46:49.150Z,55.9
2019-01-02T15:51:45.576Z,55.4
2019-01-02T15:56:41.930Z,55.5
2019-01-02T16:01:38.642Z,56
2019-01-02T16:06:34.715Z,56.4
2019-01-02T16:11:30.899Z,56.5
2019-01-02T16:16:26.959Z,56.8
2019-01-02T16:21:23.263Z,56.4
2019-01-02T16:26:19.501Z,56.2
2019-01-02T16:31:15.777Z,55.6
2019-01-02T16:36:12.110Z,55.2
2019-01-02T16:41:08.323Z,54.5
2019-01-02T16:46:04.579Z,53.8
2019-01-02T16:51:01.601Z,53.7
2019-01-02T16:55:57.864Z,53.1
2019-01-02T17:00:54.321Z,52.7
2019-01-02T17:05:50.449Z,52.2
2019-01-02T17:10:46.735Z,52.1
2019-01-02T17:15:43.029Z,51.7
2019-01-02T17:20:39.180Z,52
2019-01-02T17:25:35.701Z,51.8
2019-01-02T17:30:32.249Z,51.8
2019-01-02T17:35:29.072Z,51.8
2019-01-02T17:40:25.270Z,52.2
2019-01-02T17:45:21.555Z,52.3
2019-01-02T17:50:17.682Z,52.4
2019-01-02T17:55:14.182Z,52.8
2019-01-02T18:00:10.754Z,52.9
2019-01-02T18:05:06.978Z,52.9
2019-01-02T18:10:02.950Z,53.2
2019-01-02T18:14:59.194Z,53.5
2019-01-02T18:19:55.474Z,53.7
2019-01-02T18:24:51.661Z,53.8
2019-01-02T18:29:47.996Z,54.2
2019-01-02T18:34:44.360Z,54.4
2019-01-02T18:39:40.621Z,54.7
2019-01-02T18:44:36.971Z,54.7
2019-01-02T18:49:33.094Z,55
2019-01-02T18:54:29.542Z,55.3
2019-01-02T18:59:25.835Z,55.6
2019-01-02T19:04:22.428Z,55.8
2019-01-02T19:09:18.648Z,56
2019-01-02T19:14:14.755Z,56.2
2019-01-02T19:19:11.199Z,56.5
2019-01-02T19:24:07.678Z,56.7
2019-01-02T19:29:03.825Z,56.8
2019-01-02T19:33:59.871Z,57
2019-01-02T19:38:56.203Z,57
2019-01-02T19:43:52.570Z,57
2019-01-02T19:48:49.228Z,56.9
2019-01-02T19:53:45.424Z,57.1
2019-01-02T19:58:41.801Z,56.9
2019-01-02T20:03:38.045Z,57.1
2019-01-02T20:08:34.338Z,57.1
2019-01-02T20:13:30.591Z,57
2019-01-02T20:18:26.872Z,57
2019-01-02T20:23:23.350Z,57
2019-01-02T20:28:19.802Z,57.1
2019-01-02T20:33:16.045Z,57
2019-01-02T20:38:12.452Z,57.2
2019-01-02T20:43:08.907Z,57.1
2019-01-02T20:48:05.239Z,57.2
2019-01-02T20:53:01.576Z,57.2
2019-01-02T20:57:57.894Z,57.2
2019-01-02T21:02:54.133Z,57.2
2019-01-02T21:07:50.611Z,57.2
2019-01-02T21:12:46.865Z,56.9
2019-01-02T21:17:42.949Z,57.2
2019-01-02T21:22:39.188Z,57
2019-01-02T21:27:35.512Z,56.9
2019-01-02T21:32:31.666Z,56.7
2019-01-02T21:37:27.948Z,56.9
2019-01-02T21:42:23.991Z,57
2019-01-02T21:47:20.227Z,57.1
2019-01-02T21:52:16.582Z,57.2
2019-01-02T21:57:13.078Z,57.2
2019-01-02T22:02:09.533Z,57.2
2019-01-02T22:07:06.429Z,57.1
2019-01-02T22:12:02.599Z,57.2
2019-01-02T22:16:58.920Z,57.3
2019-01-02T22:21:54.817Z,57.1
2019-01-02T22:26:51.080Z,56.8
2019-01-02T22:31:46.944Z,56.9
2019-01-02T22:36:43.385Z,57
2019-01-02T22:41:39.805Z,57
2019-01-02T22:46:36.243Z,57.1
2019-01-02T22:51:30.114Z,57.3
2019-01-02T22:56:26.561Z,57.1
2019-01-02T23:01:23.038Z,57.3
2019-01-02T23:06:19.752Z,57.4
2019-01-02T23:11:15.946Z,57.5
2019-01-02T23:16:12.369Z,57.4
2019-01-02T23:21:08.706Z,57.2
2019-01-02T23:26:04.942Z,57.4
2019-01-02T23:31:00.952Z,57.4
2019-01-02T23:35:57.097Z,57.7
2019-01-02T23:40:53.511Z,57.6
2019-01-02T23:45:49.953Z,57.6
2019-01-02T23:50:46.105Z,57.7
2019-01-02T23:55:42.098Z,57.6
